createdAt,value
2018-03-07T00:00:33.688Z,0
2018-03-07T00:01:32.901Z,0
2018-03-07T00:02:33.138Z,0
2018-03-07T00:03:33.137Z,0
2018-03-07T00:04:33.713Z,0
2018-03-07T00:05:32.858Z,0
2018-03-07T00:06:33.360Z,0
2018-03-07T00:07:33.316Z,0
2018-03-07T00:08:32.845Z,0
2018-03-07T00:09:33.122Z,0
2018-03-07T00:10:33.340Z,0
2018-03-07T00:11:33.085Z,0
2018-03-07T00:12:32.805Z,0
2018-03-07T00:13:33.897Z,0
2018-03-07T00:14:33.323Z,0
2018-03-07T00:15:33.323Z,0
2018-03-07T00:16:33.681Z,0
2018-03-07T00:17:33.432Z,0
2018-03-07T00:18:33.070Z,0
2018-03-07T00:19:33.303Z,0
2018-03-07T00:20:33.024Z,0
2018-03-07T00:21:33.021Z,0
2018-03-07T00:22:33.865Z,0
2018-03-07T00:23:32.752Z,0
2018-03-07T00:24:32.756Z,0
2018-03-07T00:25:33.255Z,0
2018-03-07T00:26:32.990Z,0
2018-03-07T00:27:32.769Z,0
2018-03-07T00:28:32.756Z,0
2018-03-07T00:29:33.224Z,0
2018-03-07T00:30:32.719Z,0
2018-03-07T00:31:32.956Z,0
2018-03-07T00:32:33.257Z,0
2018-03-07T00:33:33.169Z,0
2018-03-07T00:34:33.207Z,0
2018-03-07T00:35:33.418Z,0
2018-03-07T00:36:33.155Z,0
2018-03-07T00:37:33.877Z,0
2018-03-07T00:38:32.648Z,0
2018-03-07T00:39:33.202Z,0
2018-03-07T00:40:32.967Z,0
2018-03-07T00:41:33.180Z,0
2018-03-07T00:42:32.957Z,0
2018-03-07T00:44:57.930Z,0
2018-03-07T00:45:35.448Z,0
2018-03-07T00:46:34.811Z,0
2018-03-07T00:47:15.656Z,0
2018-03-07T00:48:08.231Z,0
2018-03-07T00:49:07.292Z,0
2018-03-07T00:50:27.589Z,0
2018-03-07T00:51:07.294Z,0
2018-03-07T00:52:07.770Z,0
2018-03-07T00:53:09.563Z,0
2018-03-07T00:54:06.971Z,0
2018-03-07T00:55:07.453Z,0
2018-03-07T00:56:07.718Z,0
2018-03-07T00:57:07.438Z,0
2018-03-07T00:58:07.735Z,0
2018-03-07T00:59:07.418Z,0
2018-03-07T01:00:06.947Z,0
2018-03-07T01:01:06.910Z,0
2018-03-07T01:02:07.424Z,0
2018-03-07T01:03:07.430Z,0
2018-03-07T01:04:07.192Z,0
2018-03-07T01:05:07.470Z,0
2018-03-07T01:06:07.396Z,0
2018-03-07T01:07:07.462Z,0
2018-03-07T01:08:07.175Z,0
2018-03-07T01:09:07.650Z,0
2018-03-07T01:10:07.449Z,0
2018-03-07T01:11:07.120Z,0
2018-03-07T01:12:07.628Z,0
2018-03-07T01:13:07.369Z,0
2018-03-07T01:14:07.062Z,0
2018-03-07T01:15:07.312Z,0
2018-03-07T01:16:07.381Z,0
2018-03-07T01:17:07.039Z,0
2018-03-07T01:18:07.575Z,0
2018-03-07T01:19:07.033Z,0
2018-03-07T01:20:07.028Z,0
2018-03-07T01:21:06.815Z,0
2018-03-07T01:22:07.335Z,0
2018-03-07T01:23:07.729Z,0
2018-03-07T01:24:06.993Z,0
2018-03-07T01:25:07.496Z,0
2018-03-07T01:26:06.983Z,0
2018-03-07T01:27:07.251Z,0
2018-03-07T01:28:07.204Z,0
2018-03-07T01:29:07.452Z,0
2018-03-07T01:30:07.459Z,0
2018-03-07T01:31:06.976Z,0
2018-03-07T01:32:07.193Z,0
2018-03-07T01:33:07.430Z,0
2018-03-07T01:34:06.923Z,0
2018-03-07T01:35:07.425Z,0
2018-03-07T01:36:06.669Z,0
2018-03-07T01:37:07.405Z,0
2018-03-07T01:38:08.101Z,0
2018-03-07T01:39:07.141Z,0
2018-03-07T01:40:07.387Z,0
2018-03-07T01:41:06.867Z,0
2018-03-07T01:42:07.107Z,0
2018-03-07T01:43:07.104Z,0
2018-03-07T01:44:07.083Z,0
2018-03-07T01:45:06.867Z,0
2018-03-07T01:46:06.877Z,0
2018-03-07T01:47:06.823Z,0
2018-03-07T01:48:07.295Z,0
2018-03-07T01:49:07.311Z,0
2018-03-07T01:50:07.067Z,0
2018-03-07T01:51:06.806Z,0
2018-03-07T01:52:07.305Z,0
2018-03-07T01:53:07.565Z,0
2018-03-07T01:54:06.482Z,0
2018-03-07T01:55:06.479Z,0
2018-03-07T01:56:06.733Z,0
2018-03-07T01:57:06.740Z,0
2018-03-07T01:58:06.992Z,0
2018-03-07T01:59:06.705Z,0
2018-03-07T02:00:06.971Z,0
2018-03-07T02:01:06.441Z,0
2018-03-07T02:02:06.938Z,0
2018-03-07T02:03:06.935Z,0
2018-03-07T02:04:07.194Z,0
2018-03-07T02:05:06.645Z,0
2018-03-07T02:06:06.649Z,0
2018-03-07T02:07:06.915Z,0
2018-03-07T02:08:06.929Z,0
2018-03-07T02:09:08.689Z,0
2018-03-07T02:10:06.627Z,0
2018-03-07T02:11:06.480Z,0
2018-03-07T02:12:07.104Z,0
2018-03-07T02:13:06.853Z,0
2018-03-07T02:14:06.846Z,0
2018-03-07T02:15:06.834Z,0
2018-03-07T02:16:06.575Z,0
2018-03-07T02:17:06.805Z,0
2018-03-07T02:18:06.298Z,0
2018-03-07T02:19:06.799Z,0
2018-03-07T02:20:07.042Z,0
2018-03-07T02:21:06.264Z,0
2018-03-07T02:22:06.515Z,0
2018-03-07T02:23:06.255Z,0
2018-03-07T02:24:07.363Z,0
2018-03-07T02:25:06.753Z,0
2018-03-07T02:26:06.224Z,0
2018-03-07T02:27:06.460Z,0
2018-03-07T02:28:06.452Z,0
2018-03-07T02:29:06.724Z,0
2018-03-07T02:30:06.715Z,0
2018-03-07T02:31:06.942Z,0
2018-03-07T02:32:06.721Z,0
2018-03-07T02:33:06.718Z,0
2018-03-07T02:34:06.457Z,0
2018-03-07T02:35:06.700Z,0
2018-03-07T02:36:06.393Z,0
2018-03-07T02:37:06.896Z,0
2018-03-07T02:38:06.662Z,0
2018-03-07T02:39:08.973Z,0
2018-03-07T02:40:06.606Z,0
2018-03-07T02:41:06.864Z,0
2018-03-07T02:42:06.895Z,0
2018-03-07T02:43:06.615Z,0
2018-03-07T02:44:07.120Z,0
2018-03-07T02:45:06.835Z,0
2018-03-07T02:46:06.569Z,0
2018-03-07T02:47:06.549Z,0
2018-03-07T02:48:06.313Z,0
2018-03-07T02:49:06.644Z,0
2018-03-07T02:50:06.616Z,0
2018-03-07T02:51:06.529Z,0
2018-03-07T02:52:06.529Z,0
2018-03-07T02:53:06.492Z,0
2018-03-07T02:54:08.355Z,0
2018-03-07T02:55:06.737Z,0
2018-03-07T02:56:06.220Z,0
2018-03-07T02:57:06.480Z,0
2018-03-07T02:58:06.480Z,0
2018-03-07T02:59:06.445Z,0
2018-03-07T03:00:05.941Z,0
2018-03-07T03:01:06.734Z,0
2018-03-07T03:02:06.760Z,0
2018-03-07T03:03:06.686Z,0
2018-03-07T03:04:06.408Z,0
2018-03-07T03:05:06.419Z,0
2018-03-07T03:06:06.426Z,0
2018-03-07T03:07:06.384Z,0
2018-03-07T03:08:06.362Z,0
2018-03-07T03:09:06.112Z,0
2018-03-07T03:10:06.334Z,0
2018-03-07T03:11:06.331Z,0
2018-03-07T03:12:06.069Z,0
2018-03-07T03:13:06.630Z,0
2018-03-07T03:14:06.587Z,0
2018-03-07T03:15:05.772Z,0
2018-03-07T03:16:06.580Z,0
2018-03-07T03:17:06.525Z,0
2018-03-07T03:18:06.521Z,0
2018-03-07T03:19:06.025Z,0
2018-03-07T03:20:07.045Z,0
2018-03-07T03:21:06.289Z,0
2018-03-07T03:22:05.995Z,0
2018-03-07T03:23:06.463Z,0
2018-03-07T03:24:06.242Z,0
2018-03-07T03:25:06.798Z,0
2018-03-07T03:26:05.939Z,0
2018-03-07T03:27:05.984Z,0
2018-03-07T03:28:06.208Z,0
2018-03-07T03:29:05.904Z,0
2018-03-07T03:30:06.167Z,0
2018-03-07T03:31:06.220Z,0
2018-03-07T03:32:06.392Z,0
2018-03-07T03:33:05.881Z,0
2018-03-07T03:34:06.123Z,0
2018-03-07T03:35:06.356Z,0
2018-03-07T03:36:06.349Z,0
2018-03-07T03:37:06.097Z,0
2018-03-07T03:38:06.352Z,0
2018-03-07T03:39:06.332Z,0
2018-03-07T03:40:08.472Z,0
2018-03-07T03:41:06.165Z,0
2018-03-07T03:42:05.789Z,0
2018-03-07T03:43:06.290Z,0
2018-03-07T03:44:06.292Z,0
2018-03-07T03:45:06.029Z,0
2018-03-07T03:46:05.751Z,0
2018-03-07T03:47:05.993Z,0
2018-03-07T03:48:06.253Z,0
2018-03-07T03:49:05.780Z,0
2018-03-07T03:50:05.969Z,0
2018-03-07T03:51:05.980Z,0
2018-03-07T03:52:05.786Z,0
2018-03-07T03:53:05.689Z,0
2018-03-07T03:54:06.179Z,0
2018-03-07T03:55:06.523Z,0
2018-03-07T03:56:06.165Z,0
2018-03-07T03:57:06.159Z,0
2018-03-07T03:58:06.169Z,0
2018-03-07T03:59:05.901Z,0
2018-03-07T04:00:05.359Z,0
2018-03-07T04:01:06.115Z,0
2018-03-07T04:02:05.612Z,0
2018-03-07T04:03:05.858Z,0
2018-03-07T04:04:06.093Z,0
2018-03-07T04:05:05.834Z,0
2018-03-07T04:06:05.815Z,0
2018-03-07T04:07:05.559Z,0
2018-03-07T04:08:06.060Z,0
2018-03-07T04:09:06.050Z,0
2018-03-07T04:10:05.535Z,0
2018-03-07T04:11:06.321Z,0
2018-03-07T04:12:05.503Z,0
2018-03-07T04:13:05.503Z,0
2018-03-07T04:14:05.489Z,0
2018-03-07T04:15:05.495Z,0
2018-03-07T04:16:05.974Z,0
2018-03-07T04:17:05.716Z,0
2018-03-07T04:18:05.953Z,0
2018-03-07T04:19:05.805Z,0
2018-03-07T04:20:05.945Z,0
2018-03-07T04:21:05.943Z,0
2018-03-07T04:22:05.982Z,0
2018-03-07T04:23:05.989Z,0
2018-03-07T04:24:05.911Z,0
2018-03-07T04:25:05.122Z,0
2018-03-07T04:26:06.232Z,0
2018-03-07T04:27:05.614Z,0
2018-03-07T04:28:05.105Z,0
2018-03-07T04:29:05.862Z,0
2018-03-07T04:30:05.081Z,0
2018-03-07T04:31:05.580Z,0
2018-03-07T04:32:05.816Z,0
2018-03-07T04:33:05.560Z,0
2018-03-07T04:34:05.799Z,0
2018-03-07T04:35:05.294Z,0
2018-03-07T04:36:05.837Z,0
2018-03-07T04:37:05.781Z,0
2018-03-07T04:38:05.786Z,0
2018-03-07T04:39:05.255Z,0
2018-03-07T04:40:05.260Z,0
2018-03-07T04:41:05.701Z,0
2018-03-07T04:42:04.996Z,0
2018-03-07T04:43:05.481Z,0
2018-03-07T04:44:05.716Z,0
2018-03-07T04:45:04.697Z,0
2018-03-07T04:46:05.721Z,0
2018-03-07T04:47:05.439Z,0
2018-03-07T04:48:05.179Z,0
2018-03-07T04:49:05.691Z,0
2018-03-07T04:50:05.170Z,0
2018-03-07T04:51:05.672Z,0
2018-03-07T04:52:05.137Z,0
2018-03-07T04:53:05.690Z,0
2018-03-07T04:54:05.396Z,0
2018-03-07T04:55:04.856Z,0
2018-03-07T04:56:07.566Z,0
2018-03-07T04:57:05.602Z,0
2018-03-07T04:58:05.363Z,0
2018-03-07T04:59:05.344Z,0
2018-03-07T05:00:05.340Z,0
2018-03-07T05:01:05.397Z,0
2018-03-07T05:02:05.324Z,0
2018-03-07T05:03:05.581Z,0
2018-03-07T05:04:05.317Z,0
2018-03-07T05:05:05.016Z,0
2018-03-07T05:06:05.289Z,0
2018-03-07T05:07:05.276Z,0
2018-03-07T05:08:05.264Z,0
2018-03-07T05:09:05.263Z,0
2018-03-07T05:10:05.237Z,0
2018-03-07T05:11:05.021Z,0
2018-03-07T05:12:04.963Z,0
2018-03-07T05:13:05.273Z,0
2018-03-07T05:14:05.461Z,0
2018-03-07T05:15:05.178Z,0
2018-03-07T05:16:05.423Z,0
2018-03-07T05:17:05.419Z,0
2018-03-07T05:18:05.420Z,0
2018-03-07T05:19:04.915Z,0
2018-03-07T05:20:04.919Z,0
2018-03-07T05:21:05.142Z,0
2018-03-07T05:22:05.371Z,0
2018-03-07T05:23:04.862Z,0
2018-03-07T05:24:05.364Z,0
2018-03-07T05:25:05.105Z,0
2018-03-07T05:26:05.835Z,0
2018-03-07T05:27:05.342Z,0
2018-03-07T05:28:05.344Z,0
2018-03-07T05:29:05.333Z,0
2018-03-07T05:30:05.176Z,0
2018-03-07T05:31:05.049Z,0
2018-03-07T05:32:05.306Z,0
2018-03-07T05:33:05.044Z,0
2018-03-07T05:34:05.292Z,0
2018-03-07T05:35:05.032Z,0
2018-03-07T05:36:05.269Z,0
2018-03-07T05:37:05.005Z,0
2018-03-07T05:38:04.993Z,0
2018-03-07T05:39:04.983Z,0
2018-03-07T05:40:04.981Z,0
2018-03-07T05:41:04.972Z,0
2018-03-07T05:42:06.261Z,0
2018-03-07T05:43:04.189Z,0
2018-03-07T05:44:04.968Z,0
2018-03-07T05:45:04.928Z,0
2018-03-07T05:46:04.928Z,0
2018-03-07T05:47:05.022Z,0
2018-03-07T05:48:05.168Z,0
2018-03-07T05:49:04.911Z,0
2018-03-07T05:50:04.898Z,0
2018-03-07T05:51:04.123Z,0
2018-03-07T05:52:06.485Z,0
2018-03-07T05:53:05.111Z,0
2018-03-07T05:54:04.599Z,0
2018-03-07T05:55:04.345Z,0
2018-03-07T05:56:04.855Z,5
2018-03-07T05:57:05.447Z,5
2018-03-07T05:58:05.085Z,5
2018-03-07T05:59:04.822Z,5
2018-03-07T06:00:04.875Z,5
2018-03-07T06:01:04.600Z,5
2018-03-07T06:02:04.787Z,5
2018-03-07T06:03:05.052Z,5
2018-03-07T06:04:05.034Z,5
2018-03-07T06:05:04.762Z,5
2018-03-07T06:06:04.754Z,5
2018-03-07T06:07:04.847Z,5
2018-03-07T06:08:05.011Z,5
2018-03-07T06:09:04.490Z,5
2018-03-07T06:10:04.732Z,5
2018-03-07T06:11:04.721Z,5
2018-03-07T06:12:07.772Z,5
2018-03-07T06:13:04.956Z,5
2018-03-07T06:14:04.717Z,5
2018-03-07T06:15:04.988Z,10
2018-03-07T06:16:04.426Z,10
2018-03-07T06:17:04.666Z,10
2018-03-07T06:18:04.417Z,10
2018-03-07T06:19:04.935Z,10
2018-03-07T06:28:14.490Z,10
2018-03-07T06:29:13.980Z,10
2018-03-07T06:30:15.849Z,10
2018-03-07T06:31:14.554Z,10
2018-03-07T06:32:14.209Z,10
2018-03-07T06:33:14.241Z,10
2018-03-07T06:34:14.250Z,10
2018-03-07T06:35:14.955Z,10
2018-03-07T06:36:14.170Z,10
2018-03-07T06:37:14.150Z,10
2018-03-07T06:38:14.417Z,10
2018-03-07T06:39:14.388Z,10
2018-03-07T06:40:15.717Z,10
2018-03-07T06:41:14.416Z,10
2018-03-07T06:42:13.868Z,10
2018-03-07T06:43:16.219Z,5
2018-03-07T06:44:13.835Z,5
2018-03-07T06:45:15.615Z,5
2018-03-07T06:46:14.330Z,5
2018-03-07T06:47:14.315Z,5
2018-03-07T06:48:14.053Z,5
2018-03-07T06:49:14.318Z,5
2018-03-07T06:50:15.883Z,5
2018-03-07T06:51:14.287Z,10
2018-03-07T06:52:14.291Z,10
2018-03-07T06:53:14.277Z,10
2018-03-07T06:54:14.257Z,10
2018-03-07T06:55:15.309Z,10
2018-03-07T06:56:14.266Z,10
2018-03-07T06:57:13.743Z,10
2018-03-07T06:58:16.634Z,10
2018-03-07T06:59:13.971Z,15
2018-03-07T07:00:15.367Z,15
2018-03-07T07:01:14.265Z,15
2018-03-07T07:02:13.700Z,15
2018-03-07T07:03:14.200Z,15
2018-03-07T07:04:13.944Z,15
2018-03-07T07:05:15.218Z,15
2018-03-07T07:06:13.981Z,10
2018-03-07T07:07:14.174Z,10
2018-03-07T07:08:13.689Z,10
2018-03-07T07:09:13.916Z,10
2018-03-07T07:10:14.721Z,10
2018-03-07T07:11:13.881Z,10
2018-03-07T07:12:13.622Z,10
2018-03-07T07:13:15.370Z,10
2018-03-07T07:14:14.139Z,10
2018-03-07T07:15:15.176Z,10
2018-03-07T07:16:14.115Z,10
2018-03-07T07:17:14.125Z,15
2018-03-07T07:18:13.847Z,15
2018-03-07T07:19:14.203Z,15
2018-03-07T07:20:15.093Z,20
2018-03-07T07:21:13.575Z,20
2018-03-07T07:22:14.187Z,20
2018-03-07T07:23:13.788Z,20
2018-03-07T07:24:13.794Z,25
2018-03-07T07:25:14.836Z,25
2018-03-07T07:26:13.791Z,30
2018-03-07T07:27:13.769Z,35
2018-03-07T07:28:13.761Z,35
2018-03-07T07:29:14.602Z,35
2018-03-07T07:30:15.288Z,40
2018-03-07T07:31:13.778Z,40
2018-03-07T07:32:13.500Z,40
2018-03-07T07:33:13.734Z,45
2018-03-07T07:34:13.972Z,50
2018-03-07T07:35:15.369Z,50
2018-03-07T07:36:13.525Z,50
2018-03-07T07:37:13.712Z,55
2018-03-07T07:38:13.446Z,55
2018-03-07T07:39:13.700Z,55
2018-03-07T07:40:15.674Z,55
2018-03-07T07:41:13.400Z,60
2018-03-07T07:42:13.672Z,60
2018-03-07T07:43:13.438Z,60
2018-03-07T07:44:16.416Z,60
2018-03-07T07:45:14.832Z,60
2018-03-07T07:46:13.375Z,65
2018-03-07T07:47:14.067Z,70
2018-03-07T07:48:13.882Z,80
2018-03-07T07:49:14.010Z,80
2018-03-07T07:50:14.291Z,85
2018-03-07T07:51:13.333Z,85
2018-03-07T07:52:13.588Z,85
2018-03-07T07:53:13.834Z,90
2018-03-07T07:54:13.324Z,95
2018-03-07T07:55:15.140Z,100
2018-03-07T07:56:13.562Z,100
2018-03-07T07:57:13.307Z,95
2018-03-07T07:58:13.542Z,95
2018-03-07T07:59:13.540Z,95
2018-03-07T08:00:15.529Z,100
2018-03-07T08:01:13.544Z,105
2018-03-07T08:02:13.528Z,110
2018-03-07T08:03:13.521Z,115
2018-03-07T08:04:13.524Z,125
2018-03-07T08:05:14.666Z,135
2018-03-07T08:06:13.538Z,140
2018-03-07T08:07:13.499Z,130
2018-03-07T08:08:13.744Z,120
2018-03-07T08:09:13.505Z,115
2018-03-07T08:10:14.849Z,115
2018-03-07T08:11:13.491Z,115
2018-03-07T08:12:13.795Z,120
2018-03-07T08:13:13.469Z,120
2018-03-07T08:14:13.206Z,120
2018-03-07T08:15:16.419Z,125
2018-03-07T08:16:12.682Z,130
2018-03-07T08:17:13.699Z,140
2018-03-07T08:18:13.406Z,145
2018-03-07T08:19:13.690Z,150
2018-03-07T08:20:14.865Z,145
2018-03-07T08:21:13.173Z,145
2018-03-07T08:22:13.178Z,150
2018-03-07T08:23:13.727Z,155
2018-03-07T08:24:13.158Z,165
2018-03-07T08:25:15.889Z,165
2018-03-07T08:26:13.449Z,170
2018-03-07T08:27:13.509Z,175
2018-03-07T08:28:13.142Z,170
2018-03-07T08:29:13.638Z,165
2018-03-07T08:30:15.435Z,160
2018-03-07T08:31:13.120Z,165
2018-03-07T08:32:13.619Z,170
2018-03-07T08:33:13.113Z,180
2018-03-07T08:34:13.132Z,190
2018-03-07T08:35:15.004Z,175
2018-03-07T08:36:13.375Z,150
2018-03-07T08:37:13.790Z,150
2018-03-07T08:38:12.834Z,160
2018-03-07T08:39:13.360Z,235
2018-03-07T08:40:14.830Z,210
2018-03-07T08:41:13.586Z,255
2018-03-07T08:42:13.589Z,190
2018-03-07T08:43:13.319Z,240
2018-03-07T08:44:13.571Z,195
2018-03-07T08:45:14.759Z,200
2018-03-07T08:46:14.917Z,200
2018-03-07T08:47:13.306Z,190
2018-03-07T08:48:13.565Z,195
2018-03-07T08:49:12.791Z,245
2018-03-07T08:50:14.211Z,225
2018-03-07T08:51:13.036Z,190
2018-03-07T08:52:13.036Z,220
2018-03-07T08:53:13.041Z,255
2018-03-07T08:54:13.541Z,190
2018-03-07T08:55:14.663Z,285
2018-03-07T08:56:13.029Z,195
2018-03-07T08:57:13.269Z,180
2018-03-07T08:58:13.276Z,250
2018-03-07T08:59:13.533Z,155
2018-03-07T09:00:15.236Z,150
2018-03-07T09:01:13.303Z,250
2018-03-07T09:02:13.517Z,165
2018-03-07T09:03:13.533Z,155
2018-03-07T09:04:13.499Z,255
2018-03-07T09:05:14.427Z,255
2018-03-07T09:06:13.584Z,220
2018-03-07T09:07:13.244Z,260
2018-03-07T09:08:13.227Z,265
2018-03-07T09:09:13.497Z,255
2018-03-07T09:10:14.811Z,250
2018-03-07T09:11:13.473Z,225
2018-03-07T09:12:13.480Z,205
2018-03-07T09:13:13.495Z,205
2018-03-07T09:14:13.224Z,235
2018-03-07T09:15:14.735Z,215
2018-03-07T09:16:13.982Z,220
2018-03-07T09:17:13.447Z,230
2018-03-07T09:18:13.208Z,315
2018-03-07T09:19:13.196Z,320
2018-03-07T09:20:14.145Z,315
2018-03-07T09:21:12.945Z,315
2018-03-07T09:22:13.441Z,310
2018-03-07T09:23:13.465Z,265
2018-03-07T09:24:12.926Z,240
2018-03-07T09:25:14.332Z,295
2018-03-07T09:26:13.450Z,285
2018-03-07T09:27:13.175Z,320
2018-03-07T09:28:12.919Z,315
2018-03-07T09:29:12.987Z,250
2018-03-07T09:30:14.953Z,240
2018-03-07T09:31:13.227Z,250
2018-03-07T09:32:12.906Z,235
2018-03-07T09:33:13.163Z,235
2018-03-07T09:34:13.155Z,235
2018-03-07T09:35:14.247Z,235
2018-03-07T09:36:13.161Z,230
2018-03-07T09:37:13.163Z,230
2018-03-07T09:38:12.908Z,225
2018-03-07T09:39:12.956Z,220
2018-03-07T09:40:14.066Z,220
2018-03-07T09:41:12.898Z,220
2018-03-07T09:42:13.133Z,220
2018-03-07T09:43:13.401Z,220
2018-03-07T09:44:13.384Z,220
2018-03-07T09:45:14.281Z,225
2018-03-07T09:46:15.782Z,220
2018-03-07T09:47:13.135Z,215
2018-03-07T09:48:13.389Z,210
2018-03-07T09:49:13.138Z,205
2018-03-07T09:50:14.950Z,205
2018-03-07T09:51:13.147Z,205
2018-03-07T09:52:13.122Z,210
2018-03-07T09:53:12.861Z,205
2018-03-07T09:54:13.124Z,215
2018-03-07T09:55:14.360Z,215
2018-03-07T09:56:13.044Z,215
2018-03-07T09:57:13.100Z,215
2018-03-07T09:58:13.112Z,225
2018-03-07T09:59:13.138Z,230
2018-03-07T10:00:13.311Z,235
2018-03-07T10:01:13.100Z,235
2018-03-07T10:02:13.503Z,235
2018-03-07T10:03:13.344Z,235
2018-03-07T10:04:13.095Z,235
2018-03-07T10:05:14.230Z,235
2018-03-07T10:06:13.106Z,235
2018-03-07T10:07:12.870Z,230
2018-03-07T10:08:13.086Z,225
2018-03-07T10:09:13.335Z,220
2018-03-07T10:10:14.591Z,210
2018-03-07T10:11:12.568Z,205
2018-03-07T10:12:12.817Z,205
2018-03-07T10:13:13.326Z,205
2018-03-07T10:14:13.321Z,245
2018-03-07T10:15:13.779Z,235
2018-03-07T10:16:13.365Z,275
2018-03-07T10:17:14.529Z,300
2018-03-07T10:18:13.058Z,235
2018-03-07T10:19:13.318Z,285
2018-03-07T10:20:14.458Z,260
2018-03-07T10:21:13.366Z,270
2018-03-07T10:22:13.145Z,280
2018-03-07T10:23:13.086Z,230
2018-03-07T10:24:13.142Z,190
2018-03-07T10:25:13.927Z,195
2018-03-07T10:26:13.285Z,210
2018-03-07T10:27:13.298Z,260
2018-03-07T10:28:13.041Z,255
2018-03-07T10:58:11.294Z,240
2018-03-07T10:59:08.937Z,240
2018-03-07T11:00:08.948Z,235
2018-03-07T11:01:08.522Z,235
2018-03-07T11:02:08.771Z,240
2018-03-07T11:03:08.518Z,265
2018-03-07T11:04:08.562Z,250
2018-03-07T11:05:08.878Z,250
2018-03-07T11:06:08.231Z,250
2018-03-07T11:07:08.761Z,250
2018-03-07T11:08:08.476Z,245
2018-03-07T11:09:08.253Z,250
2018-03-07T11:10:08.568Z,250
2018-03-07T11:11:08.735Z,250
2018-03-07T11:12:08.714Z,250
2018-03-07T11:13:08.251Z,250
2018-03-07T11:14:08.467Z,255
2018-03-07T11:15:08.975Z,250
2018-03-07T11:16:08.451Z,255
2018-03-07T11:17:08.452Z,250
2018-03-07T11:18:08.986Z,240
2018-03-07T11:19:08.584Z,235
2018-03-07T11:20:09.003Z,240
2018-03-07T11:21:08.958Z,245
2018-03-07T11:22:08.182Z,245
2018-03-07T11:23:08.954Z,245
2018-03-07T11:24:08.683Z,250
2018-03-07T11:25:08.391Z,245
2018-03-07T11:26:08.427Z,245
2018-03-07T11:27:08.744Z,245
2018-03-07T11:28:08.886Z,250
2018-03-07T11:29:08.450Z,250
2018-03-07T11:30:09.007Z,250
2018-03-07T11:31:08.923Z,245
2018-03-07T11:32:08.917Z,245
2018-03-07T11:33:09.003Z,240
2018-03-07T11:34:08.694Z,235
2018-03-07T11:35:09.029Z,230
2018-03-07T11:36:08.651Z,220
2018-03-07T11:37:08.913Z,220
2018-03-07T11:38:08.651Z,215
2018-03-07T11:39:08.923Z,220
2018-03-07T11:40:09.300Z,225
2018-03-07T11:41:08.392Z,235
2018-03-07T11:42:08.897Z,240
2018-03-07T11:43:08.640Z,245
2018-03-07T11:44:08.387Z,245
2018-03-07T11:45:08.743Z,240
2018-03-07T11:46:08.897Z,235
2018-03-07T11:47:07.888Z,235
2018-03-07T11:48:08.529Z,235
2018-03-07T11:49:08.151Z,225
2018-03-07T11:50:09.015Z,215
2018-03-07T11:51:08.366Z,210
2018-03-07T11:52:08.629Z,195
2018-03-07T11:53:08.381Z,185
2018-03-07T11:54:08.900Z,170
2018-03-07T11:55:09.195Z,165
2018-03-07T11:56:08.430Z,160
2018-03-07T11:57:08.620Z,155
2018-03-07T11:58:10.003Z,150
2018-03-07T11:59:08.389Z,150
2018-03-07T12:00:08.944Z,150
2018-03-07T12:01:08.602Z,155
2018-03-07T12:02:08.638Z,165
2018-03-07T12:03:08.875Z,175
2018-03-07T12:04:08.600Z,185
2018-03-07T12:05:08.970Z,200
2018-03-07T12:06:08.841Z,205
2018-03-07T12:07:08.372Z,210
2018-03-07T12:08:08.332Z,215
2018-03-07T12:09:08.614Z,225
2018-03-07T12:10:09.129Z,235
2018-03-07T12:11:08.607Z,240
2018-03-07T12:12:08.873Z,245
2018-03-07T12:13:08.838Z,245
2018-03-07T12:14:08.654Z,245
2018-03-07T12:15:08.891Z,240
2018-03-07T12:16:08.581Z,240
2018-03-07T12:17:08.591Z,245
2018-03-07T12:18:08.573Z,245
2018-03-07T12:19:08.335Z,235
2018-03-07T12:20:08.974Z,235
2018-03-07T12:21:08.331Z,245
2018-03-07T12:22:08.853Z,215
2018-03-07T12:23:08.574Z,225
2018-03-07T12:24:08.830Z,210
2018-03-07T12:25:09.169Z,230
2018-03-07T12:26:08.576Z,195
2018-03-07T12:27:08.301Z,205
2018-03-07T12:28:08.810Z,210
2018-03-07T12:29:09.648Z,210
2018-03-07T12:30:07.887Z,225
2018-03-07T12:31:08.305Z,230
2018-03-07T12:32:08.552Z,225
2018-03-07T12:33:08.797Z,235
2018-03-07T12:34:08.571Z,240
2018-03-07T12:35:08.132Z,235
2018-03-07T12:36:08.301Z,240
2018-03-07T12:37:08.536Z,245
2018-03-07T12:38:08.806Z,250
2018-03-07T12:39:08.795Z,250
2018-03-07T12:40:08.882Z,260
2018-03-07T12:41:08.288Z,265
2018-03-07T12:42:08.520Z,260
2018-03-07T12:43:08.532Z,255
2018-03-07T12:44:08.540Z,260
2018-03-07T12:45:08.442Z,250
2018-03-07T12:46:08.796Z,245
2018-03-07T12:47:08.867Z,240
2018-03-07T12:48:08.522Z,260
2018-03-07T12:49:08.525Z,245
2018-03-07T12:50:08.937Z,245
2018-03-07T12:51:08.677Z,250
2018-03-07T12:52:08.283Z,255
2018-03-07T12:53:08.789Z,250
2018-03-07T12:54:08.538Z,285
2018-03-07T12:55:08.548Z,265
2018-03-07T12:56:07.998Z,250
2018-03-07T12:57:08.259Z,255
2018-03-07T12:58:08.774Z,260
2018-03-07T12:59:10.015Z,260
2018-03-07T13:00:08.230Z,250
2018-03-07T13:01:08.979Z,245
2018-03-07T13:02:08.503Z,240
2018-03-07T13:03:08.824Z,230
2018-03-07T13:04:08.501Z,230
2018-03-07T13:05:09.142Z,215
2018-03-07T13:06:08.295Z,200
2018-03-07T13:07:08.780Z,195
2018-03-07T13:08:08.504Z,190
2018-03-07T13:09:08.757Z,195
2018-03-07T13:10:08.754Z,195
2018-03-07T13:11:08.776Z,190
2018-03-07T13:12:08.756Z,185
2018-03-07T13:13:08.629Z,175
2018-03-07T13:14:08.751Z,160
2018-03-07T13:15:08.481Z,150
2018-03-07T13:16:08.745Z,135
2018-03-07T13:17:08.497Z,130
2018-03-07T13:18:08.247Z,135
2018-03-07T13:19:08.507Z,145
2018-03-07T13:20:08.763Z,145
2018-03-07T13:21:08.486Z,145
2018-03-07T13:22:07.969Z,145
2018-03-07T13:23:08.503Z,150
2018-03-07T13:24:08.461Z,140
2018-03-07T13:25:08.291Z,140
2018-03-07T13:26:08.726Z,135
2018-03-07T13:27:08.728Z,135
2018-03-07T13:28:08.722Z,145
2018-03-07T13:29:08.962Z,155
2018-03-07T13:30:09.062Z,160
2018-03-07T13:31:08.716Z,170
2018-03-07T13:32:08.449Z,175
2018-03-07T13:33:08.732Z,185
2018-03-07T13:34:08.452Z,195
2018-03-07T13:35:09.040Z,200
2018-03-07T13:36:08.706Z,205
2018-03-07T13:37:08.199Z,200
2018-03-07T13:38:08.189Z,205
2018-03-07T13:39:08.691Z,200
2018-03-07T13:40:09.046Z,200
2018-03-07T13:41:08.710Z,205
2018-03-07T13:42:08.418Z,210
2018-03-07T13:43:08.688Z,220
2018-03-07T13:44:08.675Z,225
2018-03-07T13:45:08.792Z,215
2018-03-07T13:46:08.428Z,210
2018-03-07T13:47:08.429Z,215
2018-03-07T13:48:07.643Z,215
2018-03-07T13:49:08.665Z,200
2018-03-07T13:50:08.270Z,205
2018-03-07T13:51:08.417Z,190
2018-03-07T13:52:08.404Z,205
2018-03-07T13:53:08.403Z,210
2018-03-07T13:54:08.143Z,210
2018-03-07T13:55:08.746Z,215
2018-03-07T13:56:08.651Z,215
2018-03-07T13:57:08.649Z,210
2018-03-07T13:58:08.727Z,190
2018-03-07T13:59:08.689Z,190
2018-03-07T14:00:08.919Z,190
2018-03-07T14:01:08.453Z,185
2018-03-07T14:02:08.642Z,185
2018-03-07T14:03:08.640Z,190
2018-03-07T14:04:08.625Z,185
2018-03-07T14:05:08.608Z,185
2018-03-07T14:06:08.636Z,180
2018-03-07T14:07:08.629Z,180
2018-03-07T14:08:08.435Z,180
2018-03-07T14:09:08.387Z,180
2018-03-07T14:10:08.930Z,180
2018-03-07T14:11:08.372Z,190
2018-03-07T14:12:08.105Z,185
2018-03-07T14:13:08.118Z,180
2018-03-07T14:14:08.363Z,185
2018-03-07T14:15:08.257Z,190
2018-03-07T14:16:08.719Z,190
2018-03-07T14:17:07.837Z,195
2018-03-07T14:18:08.086Z,190
2018-03-07T14:19:08.106Z,195
2018-03-07T14:20:07.922Z,195
2018-03-07T14:21:08.361Z,200
2018-03-07T14:22:08.087Z,200
2018-03-07T14:23:08.351Z,200
2018-03-07T14:24:08.347Z,205
2018-03-07T14:25:08.509Z,205
2018-03-07T14:26:08.332Z,205
2018-03-07T14:27:08.329Z,210
2018-03-07T14:28:08.340Z,210
2018-03-07T14:29:09.677Z,210
2018-03-07T14:30:08.673Z,210
2018-03-07T14:31:08.166Z,210
2018-03-07T14:32:08.558Z,210
2018-03-07T14:33:08.315Z,215
2018-03-07T14:34:08.569Z,210
2018-03-07T14:35:08.505Z,215
2018-03-07T14:36:08.585Z,215
2018-03-07T14:37:08.080Z,215
2018-03-07T14:38:08.049Z,210
2018-03-07T14:39:08.341Z,210
2018-03-07T14:40:07.799Z,205
2018-03-07T14:41:08.298Z,205
2018-03-07T14:42:07.838Z,205
2018-03-07T14:43:08.037Z,200
2018-03-07T14:44:08.289Z,200
2018-03-07T14:45:08.873Z,195
2018-03-07T14:46:08.292Z,195
2018-03-07T14:47:07.791Z,190
2018-03-07T14:48:08.536Z,195
2018-03-07T14:49:08.573Z,195
2018-03-07T14:50:08.254Z,190
2018-03-07T14:51:08.525Z,185
2018-03-07T14:52:08.272Z,190
2018-03-07T14:53:08.019Z,190